sensor_id;sensor_type;location;lat;lon;timestamp;P1;durP1;ratioP1;P2;durP2;ratioP2
33858;SDS011;20156;47.486;12.074;2022-09-09T00:02:21;1.60;;;1.30;;
33858;SDS011;20156;47.486;12.074;2022-09-09T00:04:59;4.60;;;2.47;;
33858;SDS011;20156;47.486;12.074;2022-09-09T00:07:41;3.03;;;1.70;;
33858;SDS011;20156;47.486;12.074;2022-09-09T00:21:17;1.88;;;1.75;;
33858;SDS011;20156;47.486;12.074;2022-09-09T00:29:14;4.82;;;1.30;;
33858;SDS011;20156;47.486;12.074;2022-09-09T00:32:04;1.83;;;1.70;;
33858;SDS011;20156;47.486;12.074;2022-09-09T00:34:37;2.92;;;1.95;;
33858;SDS011;20156;47.486;12.074;2022-09-09T00:37:09;3.25;;;1.80;;
33858;SDS011;20156;47.486;12.074;2022-09-09T00:39:36;3.65;;;1.58;;
33858;SDS011;20156;47.486;12.074;2022-09-09T00:42:12;1.98;;;1.35;;
33858;SDS011;20156;47.486;12.074;2022-09-09T00:47:50;3.30;;;1.40;;
33858;SDS011;20156;47.486;12.074;2022-09-09T00:50:22;1.63;;;1.08;;
33858;SDS011;20156;47.486;12.074;2022-09-09T00:58:07;4.25;;;1.90;;
33858;SDS011;20156;47.486;12.074;2022-09-09T01:00:43;2.22;;;1.95;;
33858;SDS011;20156;47.486;12.074;2022-09-09T01:03:25;2.22;;;1.80;;
33858;SDS011;20156;47.486;12.074;2022-09-09T01:14:39;1.30;;;1.20;;
33858;SDS011;20156;47.486;12.074;2022-09-09T01:27:33;3.03;;;1.42;;
33858;SDS011;20156;47.486;12.074;2022-09-09T01:30:02;2.05;;;1.58;;
33858;SDS011;20156;47.486;12.074;2022-09-09T01:32:46;2.00;;;1.77;;
33858;SDS011;20156;47.486;12.074;2022-09-09T01:35:21;2.10;;;1.70;;
33858;SDS011;20156;47.486;12.074;2022-09-09T01:37:51;1.95;;;1.73;;
33858;SDS011;20156;47.486;12.074;2022-09-09T01:40:17;3.72;;;2.60;;
33858;SDS011;20156;47.486;12.074;2022-09-09T01:42:43;3.00;;;2.22;;
33858;SDS011;20156;47.486;12.074;2022-09-09T01:45:08;4.60;;;2.25;;
33858;SDS011;20156;47.486;12.074;2022-09-09T01:47:34;2.53;;;2.28;;
33858;SDS011;20156;47.486;12.074;2022-09-09T01:50:01;1.75;;;1.63;;
33858;SDS011;20156;47.486;12.074;2022-09-09T01:52:28;1.55;;;1.38;;
33858;SDS011;20156;47.486;12.074;2022-09-09T01:54:54;3.03;;;1.90;;
33858;SDS011;20156;47.486;12.074;2022-09-09T01:57:24;2.58;;;1.40;;
33858;SDS011;20156;47.486;12.074;2022-09-09T02:00:09;1.92;;;1.67;;
33858;SDS011;20156;47.486;12.074;2022-09-09T02:07:47;3.92;;;1.35;;
33858;SDS011;20156;47.486;12.074;2022-09-09T02:12:46;1.83;;;1.60;;
33858;SDS011;20156;47.486;12.074;2022-09-09T02:15:35;2.60;;;1.95;;
33858;SDS011;20156;47.486;12.074;2022-09-09T02:18:06;2.85;;;1.30;;
33858;SDS011;20156;47.486;12.074;2022-09-09T02:20:36;0.98;;;0.98;;
33858;SDS011;20156;47.486;12.074;2022-09-09T02:23:03;4.05;;;1.30;;
33858;SDS011;20156;47.486;12.074;2022-09-09T02:25:33;3.72;;;1.27;;
33858;SDS011;20156;47.486;12.074;2022-09-09T02:28:01;1.95;;;1.65;;
33858;SDS011;20156;47.486;12.074;2022-09-09T02:30:32;2.17;;;1.50;;
33858;SDS011;20156;47.486;12.074;2022-09-09T02:33:00;3.10;;;1.80;;
33858;SDS011;20156;47.486;12.074;2022-09-09T02:35:28;3.80;;;2.38;;
33858;SDS011;20156;47.486;12.074;2022-09-09T02:38:01;5.25;;;3.70;;
33858;SDS011;20156;47.486;12.074;2022-09-09T02:40:30;3.00;;;2.05;;
33858;SDS011;20156;47.486;12.074;2022-09-09T02:42:55;3.33;;;3.05;;
33858;SDS011;20156;47.486;12.074;2022-09-09T02:45:24;3.45;;;3.15;;
33858;SDS011;20156;47.486;12.074;2022-09-09T02:56:27;5.45;;;4.22;;
33858;SDS011;20156;47.486;12.074;2022-09-09T02:58:57;7.05;;;5.10;;
33858;SDS011;20156;47.486;12.074;2022-09-09T03:01:23;7.55;;;4.13;;
33858;SDS011;20156;47.486;12.074;2022-09-09T03:03:48;5.80;;;4.13;;
33858;SDS011;20156;47.486;12.074;2022-09-09T03:06:14;6.28;;;5.22;;
33858;SDS011;20156;47.486;12.074;2022-09-09T03:08:40;4.70;;;4.00;;
33858;SDS011;20156;47.486;12.074;2022-09-09T03:11:05;3.35;;;3.05;;
33858;SDS011;20156;47.486;12.074;2022-09-09T03:13:32;3.85;;;3.00;;
33858;SDS011;20156;47.486;12.074;2022-09-09T03:15:58;3.70;;;3.13;;
33858;SDS011;20156;47.486;12.074;2022-09-09T03:18:24;3.30;;;2.90;;
33858;SDS011;20156;47.486;12.074;2022-09-09T03:20:50;3.10;;;2.80;;
33858;SDS011;20156;47.486;12.074;2022-09-09T03:23:16;2.65;;;1.90;;
33858;SDS011;20156;47.486;12.074;2022-09-09T03:25:48;1.80;;;1.70;;
33858;SDS011;20156;47.486;12.074;2022-09-09T03:28:14;2.60;;;1.55;;
33858;SDS011;20156;47.486;12.074;2022-09-09T03:30:40;4.15;;;1.65;;
33858;SDS011;20156;47.486;12.074;2022-09-09T03:33:05;3.97;;;1.42;;
33858;SDS011;20156;47.486;12.074;2022-09-09T03:35:31;3.42;;;1.58;;
33858;SDS011;20156;47.486;12.074;2022-09-09T03:37:56;3.58;;;1.70;;
33858;SDS011;20156;47.486;12.074;2022-09-09T03:40:22;1.55;;;1.45;;
33858;SDS011;20156;47.486;12.074;2022-09-09T03:42:47;2.50;;;2.30;;
33858;SDS011;20156;47.486;12.074;2022-09-09T03:45:13;2.97;;;1.95;;
33858;SDS011;20156;47.486;12.074;2022-09-09T03:47:39;4.90;;;1.83;;
33858;SDS011;20156;47.486;12.074;2022-09-09T03:50:05;3.50;;;2.08;;
33858;SDS011;20156;47.486;12.074;2022-09-09T03:52:36;5.53;;;1.80;;
33858;SDS011;20156;47.486;12.074;2022-09-09T03:55:03;3.65;;;2.10;;
33858;SDS011;20156;47.486;12.074;2022-09-09T03:57:29;8.60;;;2.85;;
33858;SDS011;20156;47.486;12.074;2022-09-09T03:59:55;5.18;;;2.95;;
33858;SDS011;20156;47.486;12.074;2022-09-09T04:02:20;3.90;;;2.70;;
33858;SDS011;20156;47.486;12.074;2022-09-09T04:04:46;3.40;;;2.55;;
33858;SDS011;20156;47.486;12.074;2022-09-09T04:07:11;4.63;;;2.85;;
33858;SDS011;20156;47.486;12.074;2022-09-09T04:09:37;3.08;;;2.45;;
33858;SDS011;20156;47.486;12.074;2022-09-09T04:12:03;5.10;;;2.78;;
33858;SDS011;20156;47.486;12.074;2022-09-09T04:14:29;4.00;;;3.20;;
33858;SDS011;20156;47.486;12.074;2022-09-09T04:16:55;3.53;;;2.22;;
33858;SDS011;20156;47.486;12.074;2022-09-09T04:19:22;2.97;;;1.98;;
33858;SDS011;20156;47.486;12.074;2022-09-09T04:21:47;2.72;;;2.20;;
33858;SDS011;20156;47.486;12.074;2022-09-09T04:24:16;8.73;;;2.30;;
33858;SDS011;20156;47.486;12.074;2022-09-09T04:26:42;3.58;;;2.78;;
33858;SDS011;20156;47.486;12.074;2022-09-09T04:29:07;5.93;;;2.85;;
33858;SDS011;20156;47.486;12.074;2022-09-09T04:31:33;2.50;;;2.30;;
33858;SDS011;20156;47.486;12.074;2022-09-09T04:33:59;2.80;;;2.53;;
33858;SDS011;20156;47.486;12.074;2022-09-09T04:36:29;3.08;;;2.28;;
33858;SDS011;20156;47.486;12.074;2022-09-09T04:38:56;2.80;;;2.22;;
33858;SDS011;20156;47.486;12.074;2022-09-09T04:41:22;4.07;;;2.15;;
33858;SDS011;20156;47.486;12.074;2022-09-09T04:43:47;4.38;;;2.20;;
33858;SDS011;20156;47.486;12.074;2022-09-09T04:46:13;3.47;;;2.28;;
33858;SDS011;20156;47.486;12.074;2022-09-09T04:48:38;2.78;;;2.42;;
33858;SDS011;20156;47.486;12.074;2022-09-09T04:51:05;5.63;;;2.00;;
33858;SDS011;20156;47.486;12.074;2022-09-09T04:53:32;2.47;;;2.28;;
33858;SDS011;20156;47.486;12.074;2022-09-09T04:56:04;4.13;;;3.00;;
33858;SDS011;20156;47.486;12.074;2022-09-09T04:58:30;5.88;;;3.20;;
33858;SDS011;20156;47.486;12.074;2022-09-09T05:01:06;3.28;;;2.97;;
33858;SDS011;20156;47.486;12.074;2022-09-09T05:03:33;5.07;;;2.85;;
33858;SDS011;20156;47.486;12.074;2022-09-09T05:06:17;3.00;;;2.53;;
33858;SDS011;20156;47.486;12.074;2022-09-09T05:08:44;3.28;;;2.80;;
33858;SDS011;20156;47.486;12.074;2022-09-09T05:11:17;3.60;;;2.47;;
33858;SDS011;20156;47.486;12.074;2022-09-09T05:13:43;3.65;;;2.42;;
33858;SDS011;20156;47.486;12.074;2022-09-09T05:16:09;2.95;;;2.28;;
33858;SDS011;20156;47.486;12.074;2022-09-09T05:18:36;3.60;;;2.28;;
33858;SDS011;20156;47.486;12.074;2022-09-09T05:21:05;3.92;;;1.95;;
33858;SDS011;20156;47.486;12.074;2022-09-09T05:23:32;3.15;;;2.45;;
33858;SDS011;20156;47.486;12.074;2022-09-09T05:25:58;3.35;;;3.05;;
33858;SDS011;20156;47.486;12.074;2022-09-09T05:28:25;4.05;;;3.03;;
33858;SDS011;20156;47.486;12.074;2022-09-09T05:30:57;4.95;;;2.78;;
33858;SDS011;20156;47.486;12.074;2022-09-09T05:33:24;3.28;;;2.50;;
33858;SDS011;20156;47.486;12.074;2022-09-09T05:35:57;5.18;;;2.97;;
33858;SDS011;20156;47.486;12.074;2022-09-09T05:38:28;6.47;;;3.22;;
33858;SDS011;20156;47.486;12.074;2022-09-09T05:40:54;6.57;;;4.55;;
33858;SDS011;20156;47.486;12.074;2022-09-09T05:43:21;5.47;;;4.82;;
33858;SDS011;20156;47.486;12.074;2022-09-09T05:45:47;10.95;;;7.97;;
33858;SDS011;20156;47.486;12.074;2022-09-09T05:48:16;7.53;;;4.15;;
33858;SDS011;20156;47.486;12.074;2022-09-09T05:50:42;4.07;;;3.30;;
33858;SDS011;20156;47.486;12.074;2022-09-09T05:53:08;11.68;;;8.98;;
33858;SDS011;20156;47.486;12.074;2022-09-09T05:55:35;15.95;;;12.15;;
33858;SDS011;20156;47.486;12.074;2022-09-09T05:58:00;20.92;;;15.00;;
33858;SDS011;20156;47.486;12.074;2022-09-09T06:00:26;12.30;;;9.00;;
33858;SDS011;20156;47.486;12.074;2022-09-09T06:02:52;18.65;;;14.60;;
33858;SDS011;20156;47.486;12.074;2022-09-09T06:05:18;13.15;;;9.90;;
33858;SDS011;20156;47.486;12.074;2022-09-09T06:07:44;12.02;;;8.23;;
33858;SDS011;20156;47.486;12.074;2022-09-09T06:10:10;12.30;;;8.15;;
33858;SDS011;20156;47.486;12.074;2022-09-09T06:12:38;10.93;;;8.27;;
33858;SDS011;20156;47.486;12.074;2022-09-09T06:15:04;15.85;;;11.25;;
33858;SDS011;20156;47.486;12.074;2022-09-09T06:17:30;21.05;;;15.25;;
33858;SDS011;20156;47.486;12.074;2022-09-09T06:19:55;5.88;;;4.50;;
33858;SDS011;20156;47.486;12.074;2022-09-09T06:22:21;6.65;;;3.85;;
33858;SDS011;20156;47.486;12.074;2022-09-09T06:24:46;3.60;;;3.30;;
33858;SDS011;20156;47.486;12.074;2022-09-09T06:27:11;5.97;;;3.92;;
33858;SDS011;20156;47.486;12.074;2022-09-09T06:29:38;3.92;;;3.50;;
33858;SDS011;20156;47.486;12.074;2022-09-09T06:32:04;4.32;;;3.63;;
33858;SDS011;20156;47.486;12.074;2022-09-09T06:34:29;4.82;;;3.88;;
33858;SDS011;20156;47.486;12.074;2022-09-09T06:36:55;10.90;;;6.68;;
33858;SDS011;20156;47.486;12.074;2022-09-09T06:39:22;7.07;;;3.30;;
33858;SDS011;20156;47.486;12.074;2022-09-09T06:41:48;4.88;;;3.20;;
33858;SDS011;20156;47.486;12.074;2022-09-09T06:44:14;4.95;;;3.95;;
33858;SDS011;20156;47.486;12.074;2022-09-09T06:46:40;6.15;;;4.18;;
33858;SDS011;20156;47.486;12.074;2022-09-09T06:49:07;5.30;;;3.55;;
33858;SDS011;20156;47.486;12.074;2022-09-09T06:51:33;4.78;;;3.92;;
33858;SDS011;20156;47.486;12.074;2022-09-09T06:54:00;5.75;;;3.70;;
33858;SDS011;20156;47.486;12.074;2022-09-09T06:56:31;5.00;;;3.92;;
33858;SDS011;20156;47.486;12.074;2022-09-09T06:58:59;6.50;;;3.40;;
33858;SDS011;20156;47.486;12.074;2022-09-09T07:01:29;4.03;;;2.92;;
33858;SDS011;20156;47.486;12.074;2022-09-09T07:03:56;5.60;;;3.13;;
33858;SDS011;20156;47.486;12.074;2022-09-09T07:06:27;3.03;;;2.53;;
33858;SDS011;20156;47.486;12.074;2022-09-09T07:09:02;4.90;;;2.97;;
33858;SDS011;20156;47.486;12.074;2022-09-09T07:11:41;8.10;;;5.88;;
33858;SDS011;20156;47.486;12.074;2022-09-09T07:14:08;6.63;;;4.53;;
33858;SDS011;20156;47.486;12.074;2022-09-09T07:16:36;3.13;;;1.85;;
33858;SDS011;20156;47.486;12.074;2022-09-09T07:19:02;3.75;;;2.78;;
33858;SDS011;20156;47.486;12.074;2022-09-09T07:21:29;3.63;;;2.38;;
33858;SDS011;20156;47.486;12.074;2022-09-09T07:23:55;5.18;;;2.65;;
33858;SDS011;20156;47.486;12.074;2022-09-09T07:26:23;2.85;;;2.22;;
33858;SDS011;20156;47.486;12.074;2022-09-09T07:28:50;4.70;;;2.58;;
33858;SDS011;20156;47.486;12.074;2022-09-09T07:31:20;1.95;;;1.50;;
33858;SDS011;20156;47.486;12.074;2022-09-09T07:33:47;2.78;;;1.67;;
33858;SDS011;20156;47.486;12.074;2022-09-09T07:36:32;2.92;;;1.58;;
33858;SDS011;20156;47.486;12.074;2022-09-09T07:39:01;3.47;;;1.85;;
33858;SDS011;20156;47.486;12.074;2022-09-09T07:41:29;2.00;;;1.50;;
33858;SDS011;20156;47.486;12.074;2022-09-09T07:43:57;2.55;;;2.28;;
33858;SDS011;20156;47.486;12.074;2022-09-09T07:46:24;1.60;;;1.50;;
33858;SDS011;20156;47.486;12.074;2022-09-09T07:48:52;1.70;;;1.42;;
33858;SDS011;20156;47.486;12.074;2022-09-09T07:51:23;3.08;;;1.85;;
33858;SDS011;20156;47.486;12.074;2022-09-09T07:53:52;2.53;;;1.77;;
33858;SDS011;20156;47.486;12.074;2022-09-09T07:56:19;3.90;;;2.03;;
33858;SDS011;20156;47.486;12.074;2022-09-09T07:58:48;2.10;;;1.90;;
33858;SDS011;20156;47.486;12.074;2022-09-09T08:01:16;3.20;;;2.05;;
33858;SDS011;20156;47.486;12.074;2022-09-09T08:03:45;2.45;;;2.00;;
33858;SDS011;20156;47.486;12.074;2022-09-09T08:06:11;3.35;;;2.40;;
33858;SDS011;20156;47.486;12.074;2022-09-09T08:08:38;4.97;;;3.25;;
33858;SDS011;20156;47.486;12.074;2022-09-09T08:11:13;5.85;;;3.38;;
33858;SDS011;20156;47.486;12.074;2022-09-09T08:13:40;7.32;;;4.25;;
33858;SDS011;20156;47.486;12.074;2022-09-09T08:16:12;6.95;;;4.47;;
33858;SDS011;20156;47.486;12.074;2022-09-09T08:18:39;5.80;;;4.03;;
33858;SDS011;20156;47.486;12.074;2022-09-09T08:21:10;7.30;;;4.82;;
33858;SDS011;20156;47.486;12.074;2022-09-09T08:23:37;3.72;;;3.33;;
33858;SDS011;20156;47.486;12.074;2022-09-09T08:26:09;3.50;;;3.17;;
33858;SDS011;20156;47.486;12.074;2022-09-09T08:28:39;4.68;;;4.25;;
33858;SDS011;20156;47.486;12.074;2022-09-09T08:31:06;6.30;;;3.92;;
33858;SDS011;20156;47.486;12.074;2022-09-09T08:33:32;6.35;;;4.47;;
33858;SDS011;20156;47.486;12.074;2022-09-09T08:35:58;6.05;;;5.40;;
33858;SDS011;20156;47.486;12.074;2022-09-09T08:38:24;5.65;;;5.00;;
33858;SDS011;20156;47.486;12.074;2022-09-09T08:40:49;7.03;;;4.50;;
33858;SDS011;20156;47.486;12.074;2022-09-09T08:43:19;4.93;;;4.50;;
33858;SDS011;20156;47.486;12.074;2022-09-09T08:45:50;6.82;;;4.32;;
33858;SDS011;20156;47.486;12.074;2022-09-09T08:48:36;5.80;;;4.22;;
33858;SDS011;20156;47.486;12.074;2022-09-09T08:51:10;7.55;;;4.68;;
33858;SDS011;20156;47.486;12.074;2022-09-09T08:53:45;4.10;;;3.70;;
33858;SDS011;20156;47.486;12.074;2022-09-09T08:56:15;5.78;;;4.97;;
33858;SDS011;20156;47.486;12.074;2022-09-09T08:58:45;7.05;;;4.97;;
33858;SDS011;20156;47.486;12.074;2022-09-09T09:04:03;5.65;;;4.97;;
33858;SDS011;20156;47.486;12.074;2022-09-09T09:06:53;5.47;;;4.47;;
33858;SDS011;20156;47.486;12.074;2022-09-09T09:12:01;6.28;;;5.32;;
33858;SDS011;20156;47.486;12.074;2022-09-09T09:14:34;8.23;;;4.57;;
33858;SDS011;20156;47.486;12.074;2022-09-09T09:19:34;6.80;;;6.20;;
33858;SDS011;20156;47.486;12.074;2022-09-09T09:22:20;6.53;;;5.88;;
33858;SDS011;20156;47.486;12.074;2022-09-09T09:25:01;7.03;;;6.32;;
33858;SDS011;20156;47.486;12.074;2022-09-09T09:30:12;6.75;;;5.88;;
33858;SDS011;20156;47.486;12.074;2022-09-09T09:32:41;7.32;;;5.25;;
33858;SDS011;20156;47.486;12.074;2022-09-09T09:35:13;5.55;;;5.05;;
33858;SDS011;20156;47.486;12.074;2022-09-09T09:37:39;7.28;;;5.15;;
33858;SDS011;20156;47.486;12.074;2022-09-09T09:40:13;5.60;;;5.10;;
33858;SDS011;20156;47.486;12.074;2022-09-09T09:42:59;5.57;;;4.72;;
33858;SDS011;20156;47.486;12.074;2022-09-09T09:45:32;6.03;;;5.13;;
33858;SDS011;20156;47.486;12.074;2022-09-09T09:48:02;6.32;;;5.25;;
33858;SDS011;20156;47.486;12.074;2022-09-09T09:50:30;5.22;;;4.70;;
33858;SDS011;20156;47.486;12.074;2022-09-09T09:52:57;5.10;;;4.60;;
33858;SDS011;20156;47.486;12.074;2022-09-09T09:55:25;5.22;;;4.68;;
33858;SDS011;20156;47.486;12.074;2022-09-09T09:58:00;5.30;;;4.80;;
33858;SDS011;20156;47.486;12.074;2022-09-09T10:00:27;5.55;;;4.90;;
33858;SDS011;20156;47.486;12.074;2022-09-09T10:02:52;9.27;;;5.40;;
33858;SDS011;20156;47.486;12.074;2022-09-09T10:05:21;8.48;;;6.65;;
33858;SDS011;20156;47.486;12.074;2022-09-09T10:08:10;5.22;;;4.72;;
33858;SDS011;20156;47.486;12.074;2022-09-09T10:13:33;10.38;;;8.65;;
33858;SDS011;20156;47.486;12.074;2022-09-09T10:30:02;8.23;;;4.40;;
33858;SDS011;20156;47.486;12.074;2022-09-09T10:32:45;5.22;;;4.80;;
33858;SDS011;20156;47.486;12.074;2022-09-09T10:35:29;5.78;;;5.22;;
33858;SDS011;20156;47.486;12.074;2022-09-09T10:51:30;4.70;;;3.85;;
33858;SDS011;20156;47.486;12.074;2022-09-09T10:54:50;7.22;;;5.35;;
33858;SDS011;20156;47.486;12.074;2022-09-09T11:00:06;4.07;;;2.92;;
33858;SDS011;20156;47.486;12.074;2022-09-09T11:02:39;4.53;;;2.70;;
33858;SDS011;20156;47.486;12.074;2022-09-09T11:08:15;5.57;;;3.58;;
33858;SDS011;20156;47.486;12.074;2022-09-09T11:10:59;4.65;;;4.07;;
33858;SDS011;20156;47.486;12.074;2022-09-09T11:16:40;3.65;;;3.35;;
33858;SDS011;20156;47.486;12.074;2022-09-09T11:21:56;3.40;;;3.10;;
33858;SDS011;20156;47.486;12.074;2022-09-09T11:24:32;4.70;;;4.20;;
33858;SDS011;20156;47.486;12.074;2022-09-09T11:27:06;5.60;;;4.40;;
33858;SDS011;20156;47.486;12.074;2022-09-09T11:29:52;4.10;;;3.50;;
33858;SDS011;20156;47.486;12.074;2022-09-09T11:32:35;4.82;;;3.70;;
33858;SDS011;20156;47.486;12.074;2022-09-09T11:40:46;5.82;;;4.70;;
33858;SDS011;20156;47.486;12.074;2022-09-09T11:43:24;8.07;;;5.55;;
33858;SDS011;20156;47.486;12.074;2022-09-09T11:45:54;6.65;;;4.80;;
33858;SDS011;20156;47.486;12.074;2022-09-09T11:48:38;8.82;;;7.45;;
33858;SDS011;20156;47.486;12.074;2022-09-09T11:51:11;11.38;;;10.40;;
33858;SDS011;20156;47.486;12.074;2022-09-09T11:53:55;14.80;;;13.52;;
33858;SDS011;20156;47.486;12.074;2022-09-09T12:01:49;4.47;;;2.50;;
33858;SDS011;20156;47.486;12.074;2022-09-09T12:06:53;2.28;;;2.05;;
33858;SDS011;20156;47.486;12.074;2022-09-09T12:10:23;4.93;;;2.45;;
33858;SDS011;20156;47.486;12.074;2022-09-09T12:12:22;3.25;;;2.25;;
33858;SDS011;20156;47.486;12.074;2022-09-09T12:17:43;5.03;;;2.60;;
33858;SDS011;20156;47.486;12.074;2022-09-09T12:25:46;1.92;;;1.80;;
33858;SDS011;20156;47.486;12.074;2022-09-09T12:28:44;3.38;;;2.20;;
33858;SDS011;20156;47.486;12.074;2022-09-09T12:31:14;3.35;;;2.33;;
33858;SDS011;20156;47.486;12.074;2022-09-09T12:33:45;4.20;;;2.53;;
33858;SDS011;20156;47.486;12.074;2022-09-09T12:36:13;4.05;;;2.25;;
33858;SDS011;20156;47.486;12.074;2022-09-09T12:38:41;2.22;;;2.03;;
33858;SDS011;20156;47.486;12.074;2022-09-09T12:41:22;3.28;;;2.92;;
33858;SDS011;20156;47.486;12.074;2022-09-09T12:43:49;4.63;;;3.00;;
33858;SDS011;20156;47.486;12.074;2022-09-09T12:46:38;2.45;;;2.25;;
33858;SDS011;20156;47.486;12.074;2022-09-09T12:51:54;4.50;;;2.70;;
33858;SDS011;20156;47.486;12.074;2022-09-09T12:54:22;3.13;;;2.80;;
33858;SDS011;20156;47.486;12.074;2022-09-09T12:56:48;5.25;;;3.38;;
33858;SDS011;20156;47.486;12.074;2022-09-09T12:59:25;3.80;;;2.88;;
33858;SDS011;20156;47.486;12.074;2022-09-09T13:02:02;4.47;;;3.20;;
33858;SDS011;20156;47.486;12.074;2022-09-09T13:04:27;4.03;;;3.58;;
33858;SDS011;20156;47.486;12.074;2022-09-09T13:06:52;5.20;;;4.63;;
33858;SDS011;20156;47.486;12.074;2022-09-09T13:09:18;7.32;;;4.93;;
33858;SDS011;20156;47.486;12.074;2022-09-09T13:11:54;4.22;;;3.35;;
33858;SDS011;20156;47.486;12.074;2022-09-09T13:17:00;4.93;;;4.15;;
33858;SDS011;20156;47.486;12.074;2022-09-09T13:19:32;5.55;;;4.80;;
33858;SDS011;20156;47.486;12.074;2022-09-09T13:22:11;11.45;;;4.05;;
33858;SDS011;20156;47.486;12.074;2022-09-09T13:24:45;5.03;;;3.97;;
33858;SDS011;20156;47.486;12.074;2022-09-09T13:35:34;5.05;;;4.35;;
33858;SDS011;20156;47.486;12.074;2022-09-09T13:38:09;6.18;;;5.00;;
33858;SDS011;20156;47.486;12.074;2022-09-09T13:40:35;4.13;;;3.30;;
33858;SDS011;20156;47.486;12.074;2022-09-09T13:43:02;3.28;;;2.97;;
33858;SDS011;20156;47.486;12.074;2022-09-09T13:45:28;3.92;;;3.58;;
33858;SDS011;20156;47.486;12.074;2022-09-09T13:47:54;5.90;;;5.32;;
33858;SDS011;20156;47.486;12.074;2022-09-09T13:50:25;12.65;;;10.13;;
33858;SDS011;20156;47.486;12.074;2022-09-09T13:52:53;4.75;;;4.35;;
33858;SDS011;20156;47.486;12.074;2022-09-09T13:55:21;9.93;;;6.78;;
33858;SDS011;20156;47.486;12.074;2022-09-09T14:00:17;3.03;;;2.50;;
33858;SDS011;20156;47.486;12.074;2022-09-09T14:02:43;7.00;;;6.28;;
33858;SDS011;20156;47.486;12.074;2022-09-09T14:05:09;9.50;;;7.40;;
33858;SDS011;20156;47.486;12.074;2022-09-09T14:07:36;4.68;;;3.83;;
33858;SDS011;20156;47.486;12.074;2022-09-09T14:10:02;6.10;;;5.50;;
33858;SDS011;20156;47.486;12.074;2022-09-09T14:12:29;11.13;;;8.75;;
33858;SDS011;20156;47.486;12.074;2022-09-09T14:14:55;5.38;;;4.03;;
33858;SDS011;20156;47.486;12.074;2022-09-09T14:17:20;4.07;;;2.80;;
33858;SDS011;20156;47.486;12.074;2022-09-09T14:19:47;4.85;;;3.38;;
33858;SDS011;20156;47.486;12.074;2022-09-09T14:22:12;4.20;;;3.20;;
33858;SDS011;20156;47.486;12.074;2022-09-09T14:24:38;6.95;;;3.30;;
33858;SDS011;20156;47.486;12.074;2022-09-09T14:27:03;4.30;;;2.93;;
33858;SDS011;20156;47.486;12.074;2022-09-09T14:29:28;5.57;;;3.42;;
33858;SDS011;20156;47.486;12.074;2022-09-09T14:31:54;10.05;;;6.90;;
33858;SDS011;20156;47.486;12.074;2022-09-09T14:34:19;7.30;;;5.03;;
33858;SDS011;20156;47.486;12.074;2022-09-09T14:36:45;4.72;;;3.20;;
33858;SDS011;20156;47.486;12.074;2022-09-09T14:39:10;8.00;;;4.65;;
33858;SDS011;20156;47.486;12.074;2022-09-09T14:41:36;3.03;;;2.50;;
33858;SDS011;20156;47.486;12.074;2022-09-09T14:44:01;8.93;;;7.00;;
33858;SDS011;20156;47.486;12.074;2022-09-09T14:46:27;2.70;;;2.50;;
33858;SDS011;20156;47.486;12.074;2022-09-09T14:48:52;5.07;;;2.80;;
33858;SDS011;20156;47.486;12.074;2022-09-09T14:51:19;6.50;;;5.15;;
33858;SDS011;20156;47.486;12.074;2022-09-09T14:53:53;2.40;;;2.20;;
33858;SDS011;20156;47.486;12.074;2022-09-09T14:56:21;3.00;;;2.38;;
33858;SDS011;20156;47.486;12.074;2022-09-09T14:58:49;3.35;;;2.40;;
33858;SDS011;20156;47.486;12.074;2022-09-09T15:01:16;19.00;;;13.30;;
33858;SDS011;20156;47.486;12.074;2022-09-09T15:03:48;11.63;;;9.02;;
33858;SDS011;20156;47.486;12.074;2022-09-09T15:06:16;3.63;;;3.33;;
33858;SDS011;20156;47.486;12.074;2022-09-09T15:08:43;2.95;;;2.67;;
33858;SDS011;20156;47.486;12.074;2022-09-09T15:11:09;4.20;;;2.30;;
33858;SDS011;20156;47.486;12.074;2022-09-09T15:13:37;2.90;;;2.08;;
33858;SDS011;20156;47.486;12.074;2022-09-09T15:16:08;3.95;;;2.28;;
33858;SDS011;20156;47.486;12.074;2022-09-09T15:18:41;6.18;;;2.53;;
33858;SDS011;20156;47.486;12.074;2022-09-09T15:21:15;3.33;;;2.30;;
33858;SDS011;20156;47.486;12.074;2022-09-09T15:23:44;8.07;;;2.80;;
33858;SDS011;20156;47.486;12.074;2022-09-09T15:26:10;5.00;;;2.72;;
33858;SDS011;20156;47.486;12.074;2022-09-09T15:28:36;3.45;;;2.60;;
33858;SDS011;20156;47.486;12.074;2022-09-09T15:33:46;2.60;;;2.40;;
33858;SDS011;20156;47.486;12.074;2022-09-09T15:36:25;4.22;;;2.97;;
33858;SDS011;20156;47.486;12.074;2022-09-09T15:38:53;3.75;;;2.92;;
33858;SDS011;20156;47.486;12.074;2022-09-09T15:41:19;3.20;;;2.90;;
33858;SDS011;20156;47.486;12.074;2022-09-09T15:43:47;3.40;;;3.10;;
33858;SDS011;20156;47.486;12.074;2022-09-09T15:51:35;4.57;;;2.83;;
33858;SDS011;20156;47.486;12.074;2022-09-09T15:54:03;4.72;;;3.78;;
33858;SDS011;20156;47.486;12.074;2022-09-09T15:56:29;3.30;;;2.97;;
33858;SDS011;20156;47.486;12.074;2022-09-09T15:58:58;4.30;;;2.55;;
33858;SDS011;20156;47.486;12.074;2022-09-09T16:01:25;2.88;;;2.58;;
33858;SDS011;20156;47.486;12.074;2022-09-09T16:03:52;3.97;;;2.35;;
33858;SDS011;20156;47.486;12.074;2022-09-09T16:06:18;3.38;;;2.50;;
33858;SDS011;20156;47.486;12.074;2022-09-09T16:08:46;3.17;;;2.70;;
33858;SDS011;20156;47.486;12.074;2022-09-09T16:11:24;2.63;;;2.42;;
33858;SDS011;20156;47.486;12.074;2022-09-09T16:13:52;3.05;;;2.38;;
33858;SDS011;20156;47.486;12.074;2022-09-09T16:16:20;4.47;;;2.30;;
33858;SDS011;20156;47.486;12.074;2022-09-09T16:18:48;2.45;;;2.10;;
33858;SDS011;20156;47.486;12.074;2022-09-09T16:24:16;3.88;;;2.40;;
33858;SDS011;20156;47.486;12.074;2022-09-09T16:26:44;2.40;;;2.20;;
33858;SDS011;20156;47.486;12.074;2022-09-09T16:29:13;3.85;;;2.50;;
33858;SDS011;20156;47.486;12.074;2022-09-09T16:31:40;3.50;;;2.28;;
33858;SDS011;20156;47.486;12.074;2022-09-09T16:34:06;2.75;;;2.40;;
33858;SDS011;20156;47.486;12.074;2022-09-09T16:36:33;3.03;;;2.35;;
33858;SDS011;20156;47.486;12.074;2022-09-09T16:39:05;2.85;;;2.40;;
33858;SDS011;20156;47.486;12.074;2022-09-09T16:41:34;3.00;;;2.70;;
33858;SDS011;20156;47.486;12.074;2022-09-09T16:44:00;4.35;;;2.58;;
33858;SDS011;20156;47.486;12.074;2022-09-09T16:46:29;2.53;;;2.33;;
33858;SDS011;20156;47.486;12.074;2022-09-09T16:48:56;2.78;;;2.40;;
33858;SDS011;20156;47.486;12.074;2022-09-09T16:51:32;6.55;;;3.05;;
33858;SDS011;20156;47.486;12.074;2022-09-09T16:54:03;3.25;;;2.92;;
33858;SDS011;20156;47.486;12.074;2022-09-09T16:56:32;4.15;;;2.92;;
33858;SDS011;20156;47.486;12.074;2022-09-09T16:59:00;5.97;;;2.88;;
33858;SDS011;20156;47.486;12.074;2022-09-09T17:01:30;3.47;;;2.92;;
33858;SDS011;20156;47.486;12.074;2022-09-09T17:04:00;3.10;;;2.63;;
33858;SDS011;20156;47.486;12.074;2022-09-09T17:06:28;4.68;;;3.00;;
33858;SDS011;20156;47.486;12.074;2022-09-09T17:08:58;5.55;;;3.50;;
33858;SDS011;20156;47.486;12.074;2022-09-09T17:11:26;4.05;;;3.60;;
33858;SDS011;20156;47.486;12.074;2022-09-09T17:13:53;5.10;;;4.07;;
33858;SDS011;20156;47.486;12.074;2022-09-09T17:16:20;4.47;;;3.80;;
33858;SDS011;20156;47.486;12.074;2022-09-09T17:18:47;6.72;;;3.67;;
33858;SDS011;20156;47.486;12.074;2022-09-09T17:21:13;4.25;;;3.67;;
33858;SDS011;20156;47.486;12.074;2022-09-09T17:23:42;3.75;;;3.40;;
33858;SDS011;20156;47.486;12.074;2022-09-09T17:26:09;12.48;;;6.55;;
33858;SDS011;20156;47.486;12.074;2022-09-09T17:28:36;5.13;;;4.35;;
33858;SDS011;20156;47.486;12.074;2022-09-09T17:31:03;9.65;;;6.00;;